Bologoe, Russia
Current Conditions -  °F | °C
As of 9:30 AM on Wednesday 22 Oct 2014 (Local Time) from ULWC Reporting Station
Broken Clouds Broken Clouds  
Wind Chill: -2°   Ceiling: Unl
Heat Index: 10°   Visibility: 6mi
Dew Point:   Wind: 9mph
Humidity: 73%   Direction: 330°NNW
Pressure: 29.94"   Gusts: 16mph
Location:  57.9°N, 34.05°E
Report Text: ULWC 220630Z 33004G07MPS 9999 SCT020 BKN/// M12/M16 Q1014 NOSIGRMK QFE751/1001 SC040
Loading
Personal Weather Stations






























Interactive Weather Map
Tropical Storm Tracking
New forecast layout! Learn more

10-Day Weather Forecast

Advertisements
Track Severe Weather on mobile